Georgetown, Iowa
Current Conditions -  °F | °C
As of 1:35 AM on Wednesday 22 Oct 2014 (Local Time) from KOOA Reporting Station
Clear Clear  
Wind Chill: 37°   Ceiling: Unl
Heat Index: 42°   Visibility: 10mi
Dew Point: 37°   Wind: 7mph
Humidity: 83%   Direction: 120°ESE
Pressure: 30.22"   Gusts: NA
Location:  41.0299°N, 92.7795°W
Report Text: KOOA 220635Z AUTO 12006KT 10SM CLR 06/03 A3022 RMK AO2 T00550029
Loading
Personal Weather Stations






























Interactive Weather Map
Tropical Storm Tracking
New forecast layout! Learn more

10-Day Weather Forecast

Advertisements
Track Severe Weather on mobile